Triple Star — 3EDA5 — position and weather

sailwx.info

Track history (hours):
 
Tides and Currents Weather Stations Pressure Air Temp Water Temp Dewpoint Dewpoint Depression Visibility Wind Speed Wind Dir Waves Ship Positions

Triple Star

Last reported at 2015-May-24 04:33 UTC. Time now 2015-May-25 21:43 UTC.
Position N 46°48' W 124°56'.

Length 190 m; draft 8.9 m.

Type: Cargo ship. MMSI: 371523000.

Date/timePositionNaut miles runAvg speedWind from/ knotsBaromVisibWave heightAir tempDewpointWater temp
2015-May-24 04:33N 46°48' W 124°56'1110.8
2015-May-24 03:33N 46°48' W 124°40'1110.8
2015-May-24 02:33N 46°49' W 124°25'9 8.9
2015-May-24 01:33N 46°53' W 124°13'9 8.7
2015-May-24 00:33N 46°56' W 124°01'  
2015-May-20 04:29N 46°58' W 123°58'6 6.6
2015-May-20 03:30N 46°55' W 124°07'0 0.1
2015-May-20 02:03N 46°55' W 124°07'0 0.0
2015-May-20 01:12N 46°55' W 124°07'0 0.0
2015-May-20 00:24N 46°55' W 124°07'0 0.1
2015-May-19 23:21N 46°55' W 124°07'0 0.2
2015-May-19 22:27N 46°55' W 124°07'0 0.0
2015-May-19 17:27N 46°55' W 124°07'0 0.1
2015-May-19 15:18N 46°55' W 124°07'0 0.0
2015-May-19 13:12N 46°55' W 124°07'0 0.1
2015-May-19 12:24N 46°55' W 124°07'0 0.0
2015-May-19 11:30N 46°55' W 124°07'0 0.0
2015-May-19 10:03N 46°55' W 124°07'0 0.1
2015-May-19 05:24N 46°55' W 124°07'0 0.0
2015-May-19 03:24N 46°55' W 124°07'0 0.2
2015-May-19 02:30N 46°55' W 124°07'0 0.1
2015-May-19 01:24N 46°55' W 124°07'0 0.0
2015-May-19 00:12N 46°55' W 124°07'0 0.0
2015-May-18 23:33N 46°55' W 124°07'0 0.1
2015-May-18 22:29N 46°55' W 124°07'0 0.0
2015-May-18 15:23N 46°55' W 124°07'0 0.2
2015-May-18 14:23N 46°55' W 124°07'0 0.1
2015-May-18 13:17N 46°55' W 124°07'0 0.0
2015-May-18 12:29N 46°55' W 124°07'0 0.0
2015-May-18 11:32N 46°55' W 124°07'0 0.0
2015-May-18 10:32N 46°55' W 124°07'0 0.1
2015-May-18 07:29N 46°55' W 124°07'0 0.0
2015-May-18 06:23N 46°55' W 124°07'0 0.0
2015-May-18 05:14N 46°55' W 124°07'0 0.0
2015-May-18 04:29N 46°55' W 124°07'0 0.1
2015-May-18 02:32N 46°55' W 124°07'0 0.1
2015-May-18 00:11N 46°55' W 124°07'0 0.0
2015-May-17 22:20N 46°55' W 124°07'0 0.2
2015-May-17 21:29N 46°55' W 124°07'0 0.0
2015-May-17 13:14N 46°55' W 124°07'0 0.0
2015-May-17 12:19N 46°55' W 124°07'0 0.0
2015-May-17 11:28N 46°55' W 124°07'0 0.0
2015-May-17 10:31N 46°55' W 124°07'0 0.0
2015-May-17 09:19N 46°55' W 124°07'0 0.1
2015-May-17 08:13N 46°55' W 124°07'0 0.3
2015-May-17 07:31N 46°55' W 124°07'0 0.0
2015-May-17 06:04N 46°55' W 124°07'0 0.0
2015-May-17 05:16N 46°55' W 124°07'0 0.0
2015-May-17 04:04N 46°55' W 124°07'0 0.0
2015-May-17 03:28N 46°55' W 124°07'0 0.1
2015-May-17 01:07N 46°55' W 124°07'0 0.0
2015-May-16 23:22N 46°55' W 124°07'0 0.0
2015-May-16 22:04N 46°55' W 124°07'0 0.0
2015-May-16 21:28N 46°55' W 124°07'0 0.0
2015-May-16 15:04N 46°55' W 124°07'0 0.1
2015-May-16 13:25N 46°55' W 124°07'0 0.1
2015-May-16 12:22N 46°55' W 124°07'0 0.1
2015-May-16 11:31N 46°55' W 124°07'0 0.0
2015-May-16 04:16N 46°55' W 124°06'0 0.0
2015-May-16 03:13N 46°55' W 124°06'2 1.1
2015-May-16 01:34N 46°55' W 124°09'7 7.2
2015-May-16 00:34N 46°52' W 124°18'6 5.6
2015-May-15 23:33N 46°49' W 124°26'1110.6
2015-May-15 22:34N 46°42' W 124°37'1111.0
2015-May-15 21:34N 46°35' W 124°50'1111.2
2015-May-15 20:34N 46°27' W 125°01'1111.3
2015-May-15 19:33N 46°19' W 125°13'1211.3
2015-May-15 18:30N 46°11' W 125°26'  
Track history (hours):
 
Tides and Currents Weather Stations Pressure Air Temp Water Temp Dewpoint Dewpoint Depression Visibility Wind Speed Wind Dir Waves Ship Positions

Triple Star

Last reported at 2015-May-24 04:33 UTC. Time now 2015-May-25 21:43 UTC.
Position N 46°48' W 124°56'.

Length 190 m; draft 8.9 m.

Type: Cargo ship. MMSI: 371523000.

Date/timePositionNaut miles runAvg speedWind from/ knotsBaromVisibWave heightAir tempDewpointWater temp
2015-May-24 04:33N 46°48' W 124°56'1110.8
2015-May-24 03:33N 46°48' W 124°40'1110.8
2015-May-24 02:33N 46°49' W 124°25'9 8.9
2015-May-24 01:33N 46°53' W 124°13'9 8.7
2015-May-24 00:33N 46°56' W 124°01'  
2015-May-20 04:29N 46°58' W 123°58'6 6.6
2015-May-20 03:30N 46°55' W 124°07'0 0.1
2015-May-20 02:03N 46°55' W 124°07'0 0.0
2015-May-20 01:12N 46°55' W 124°07'0 0.0
2015-May-20 00:24N 46°55' W 124°07'0 0.1
2015-May-19 23:21N 46°55' W 124°07'0 0.2
2015-May-19 22:27N 46°55' W 124°07'0 0.0
2015-May-19 17:27N 46°55' W 124°07'0 0.1
2015-May-19 15:18N 46°55' W 124°07'0 0.0
2015-May-19 13:12N 46°55' W 124°07'0 0.1
2015-May-19 12:24N 46°55' W 124°07'0 0.0
2015-May-19 11:30N 46°55' W 124°07'0 0.0
2015-May-19 10:03N 46°55' W 124°07'0 0.1
2015-May-19 05:24N 46°55' W 124°07'0 0.0
2015-May-19 03:24N 46°55' W 124°07'0 0.2
2015-May-19 02:30N 46°55' W 124°07'0 0.1
2015-May-19 01:24N 46°55' W 124°07'0 0.0
2015-May-19 00:12N 46°55' W 124°07'0 0.0
2015-May-18 23:33N 46°55' W 124°07'0 0.1
2015-May-18 22:29N 46°55' W 124°07'0 0.0
2015-May-18 15:23N 46°55' W 124°07'0 0.2
2015-May-18 14:23N 46°55' W 124°07'0 0.1
2015-May-18 13:17N 46°55' W 124°07'0 0.0
2015-May-18 12:29N 46°55' W 124°07'0 0.0
2015-May-18 11:32N 46°55' W 124°07'0 0.0
2015-May-18 10:32N 46°55' W 124°07'0 0.1
2015-May-18 07:29N 46°55' W 124°07'0 0.0
2015-May-18 06:23N 46°55' W 124°07'0 0.0
2015-May-18 05:14N 46°55' W 124°07'0 0.0
2015-May-18 04:29N 46°55' W 124°07'0 0.1
2015-May-18 02:32N 46°55' W 124°07'0 0.1
2015-May-18 00:11N 46°55' W 124°07'0 0.0
2015-May-17 22:20N 46°55' W 124°07'0 0.2
2015-May-17 21:29N 46°55' W 124°07'0 0.0
2015-May-17 13:14N 46°55' W 124°07'0 0.0
2015-May-17 12:19N 46°55' W 124°07'0 0.0
2015-May-17 11:28N 46°55' W 124°07'0 0.0
2015-May-17 10:31N 46°55' W 124°07'0 0.0
2015-May-17 09:19N 46°55' W 124°07'0 0.1
2015-May-17 08:13N 46°55' W 124°07'0 0.3
2015-May-17 07:31N 46°55' W 124°07'0 0.0
2015-May-17 06:04N 46°55' W 124°07'0 0.0
2015-May-17 05:16N 46°55' W 124°07'0 0.0
2015-May-17 04:04N 46°55' W 124°07'0 0.0
2015-May-17 03:28N 46°55' W 124°07'0 0.1
2015-May-17 01:07N 46°55' W 124°07'0 0.0
2015-May-16 23:22N 46°55' W 124°07'0 0.0
2015-May-16 22:04N 46°55' W 124°07'0 0.0
2015-May-16 21:28N 46°55' W 124°07'0 0.0
2015-May-16 15:04N 46°55' W 124°07'0 0.1
2015-May-16 13:25N 46°55' W 124°07'0 0.1
2015-May-16 12:22N 46°55' W 124°07'0 0.1
2015-May-16 11:31N 46°55' W 124°07'0 0.0
2015-May-16 04:16N 46°55' W 124°06'0 0.0
2015-May-16 03:13N 46°55' W 124°06'2 1.1
2015-May-16 01:34N 46°55' W 124°09'7 7.2
2015-May-16 00:34N 46°52' W 124°18'6 5.6
2015-May-15 23:33N 46°49' W 124°26'1110.6
2015-May-15 22:34N 46°42' W 124°37'1111.0
2015-May-15 21:34N 46°35' W 124°50'1111.2
2015-May-15 20:34N 46°27' W 125°01'1111.3
2015-May-15 19:33N 46°19' W 125°13'1211.3
2015-May-15 18:30N 46°11' W 125°26'  

Dump ship's entire track history